createdAt,value
2023-03-23T15:58:54.612Z,16.37
2023-03-23T16:01:26.588Z,16.30
2023-03-23T16:04:12.685Z,16.22
2023-03-23T16:06:43.032Z,16.14
2023-03-23T16:09:19.368Z,16.07
2023-03-23T16:11:50.467Z,16.00
2023-03-23T16:14:19.405Z,15.95
2023-03-23T16:16:50.962Z,15.92
2023-03-23T16:19:24.514Z,15.87
2023-03-23T16:21:53.915Z,15.83
2023-03-23T16:24:24.854Z,15.80
2023-03-23T16:26:53.471Z,15.76
2023-03-23T16:29:40.626Z,15.72
2023-03-23T16:32:14.803Z,15.68
2023-03-23T16:34:43.105Z,15.64
2023-03-23T16:37:12.246Z,15.61
2023-03-23T16:39:42.450Z,15.58
2023-03-23T16:42:10.948Z,15.54
2023-03-23T16:44:41.483Z,15.49
2023-03-23T16:47:10.229Z,15.46
2023-03-23T16:49:38.500Z,15.42
2023-03-23T16:52:07.166Z,15.39
2023-03-23T16:54:35.709Z,15.35
2023-03-23T16:57:05.726Z,15.31
2023-03-23T16:59:33.986Z,15.26
2023-03-23T17:02:04.085Z,15.23
2023-03-23T17:04:34.924Z,15.17
2023-03-23T17:07:03.995Z,15.14
2023-03-23T17:09:32.359Z,15.11
2023-03-23T17:12:02.761Z,15.09
2023-03-23T17:14:31.225Z,15.06
2023-03-23T17:17:10.140Z,15.03
2023-03-23T17:19:39.683Z,15.00
2023-03-23T17:22:08.116Z,14.96
2023-03-23T17:24:41.385Z,14.92
2023-03-23T17:27:10.453Z,14.88
2023-03-23T17:29:39.172Z,14.85
2023-03-23T17:32:07.676Z,14.81
2023-03-23T17:34:36.109Z,14.76
2023-03-23T17:37:07.190Z,14.70
2023-03-23T17:39:42.598Z,14.65
2023-03-23T17:42:12.013Z,14.60
2023-03-23T17:44:42.005Z,14.55
2023-03-23T17:47:11.216Z,14.51
2023-03-23T17:49:40.116Z,14.46
2023-03-23T17:52:08.936Z,14.43
2023-03-23T17:54:37.176Z,14.39
2023-03-23T17:57:06.934Z,14.35
2023-03-23T17:59:35.853Z,14.30
2023-03-23T18:02:04.226Z,14.27
2023-03-23T18:04:32.920Z,14.24
2023-03-23T18:07:01.279Z,14.20
2023-03-23T18:09:29.975Z,14.17
2023-03-23T18:11:58.553Z,14.15
2023-03-23T18:14:27.058Z,14.12
2023-03-23T18:16:58.197Z,14.09
2023-03-23T18:19:26.827Z,14.05
2023-03-23T18:21:55.545Z,14.02
2023-03-23T18:24:24.121Z,13.99
2023-03-23T18:26:52.349Z,13.96
2023-03-23T18:29:20.718Z,13.93
2023-03-23T18:31:49.884Z,13.90
2023-03-23T18:34:18.457Z,13.88
2023-03-23T18:36:47.453Z,13.85
2023-03-23T18:39:15.829Z,13.83
2023-03-23T18:41:44.637Z,13.79
2023-03-23T18:44:13.018Z,13.76
2023-03-23T18:46:42.239Z,13.73
2023-03-23T18:49:10.649Z,13.71
2023-03-23T18:51:39.116Z,13.69
2023-03-23T18:54:08.833Z,13.68
2023-03-23T18:56:38.367Z,13.64
2023-03-23T18:59:08.022Z,13.61
2023-03-23T19:01:36.763Z,13.58
2023-03-23T19:04:07.207Z,13.55
2023-03-23T19:06:36.208Z,13.53
2023-03-23T19:09:04.963Z,13.50
2023-03-23T19:11:38.747Z,13.46
2023-03-23T19:14:07.360Z,13.42
2023-03-23T19:16:36.791Z,13.37
2023-03-23T19:19:13.045Z,13.32
2023-03-23T19:21:43.791Z,13.29
2023-03-23T19:24:14.355Z,13.25
2023-03-23T19:26:44.265Z,13.22
2023-03-23T19:31:53.557Z,13.17
2023-03-23T19:34:22.188Z,13.15
2023-03-23T19:36:55.171Z,13.13
2023-03-23T19:39:32.834Z,13.10
2023-03-23T19:42:01.373Z,13.07
2023-03-23T19:44:29.727Z,13.04
2023-03-23T19:46:58.985Z,12.99
2023-03-23T19:49:27.582Z,12.93
2023-03-23T19:52:09.035Z,12.88
2023-03-23T19:54:39.464Z,12.82
2023-03-23T19:57:10.241Z,12.79
2023-03-23T19:59:39.232Z,12.74
2023-03-23T20:02:08.269Z,12.70
2023-03-23T20:04:40.077Z,12.67
2023-03-23T20:07:09.946Z,12.64
2023-03-23T20:09:38.964Z,12.63
2023-03-23T20:12:12.961Z,12.62
2023-03-23T20:14:45.407Z,12.61
2023-03-23T20:17:14.830Z,12.60
2023-03-23T20:19:45.681Z,12.59
2023-03-23T20:22:14.796Z,12.59
2023-03-23T20:24:48.282Z,12.59
2023-03-23T20:27:17.726Z,12.57
2023-03-23T20:29:46.552Z,12.55
2023-03-23T20:32:17.747Z,12.54
2023-03-23T20:34:49.933Z,12.52
2023-03-23T20:37:20.943Z,12.51
2023-03-23T20:39:51.429Z,12.50
2023-03-23T20:42:19.855Z,12.49
2023-03-23T20:44:48.926Z,12.48
2023-03-23T20:47:18.008Z,12.46
2023-03-23T20:49:52.660Z,12.45
2023-03-23T20:52:23.595Z,12.44
2023-03-23T20:54:55.123Z,12.41
2023-03-23T20:57:23.404Z,12.39
2023-03-23T20:59:53.522Z,12.37
2023-03-23T21:02:22.369Z,12.34
2023-03-23T21:04:53.197Z,12.31
2023-03-23T21:07:23.940Z,12.28
2023-03-23T21:09:52.585Z,12.24
2023-03-23T21:12:23.495Z,12.21
2023-03-23T21:14:52.391Z,12.16
2023-03-23T21:17:21.156Z,12.09
2023-03-23T21:19:56.945Z,11.99
2023-03-23T21:22:27.470Z,11.91
2023-03-23T21:24:56.020Z,11.86
2023-03-23T21:27:24.250Z,11.81
2023-03-23T21:29:59.397Z,11.75
2023-03-23T21:32:28.589Z,11.68
2023-03-23T21:35:02.795Z,11.62
2023-03-23T21:37:32.196Z,11.58
2023-03-23T21:40:13.646Z,11.55
2023-03-23T21:42:44.822Z,11.52
2023-03-23T21:45:14.401Z,11.48
2023-03-23T21:47:45.012Z,11.43
2023-03-23T21:50:14.446Z,11.40
2023-03-23T21:52:43.370Z,11.38
2023-03-23T21:55:12.582Z,11.36
2023-03-23T21:57:42.323Z,11.34
2023-03-23T22:00:14.970Z,11.33
2023-03-23T22:02:45.829Z,11.32
2023-03-23T22:05:14.102Z,11.29
2023-03-23T22:07:46.456Z,11.27
2023-03-23T22:10:15.689Z,11.26
2023-03-23T22:12:43.997Z,11.24
2023-03-23T22:15:19.077Z,11.22
2023-03-23T22:17:47.702Z,11.20
2023-03-23T22:20:15.970Z,11.20
2023-03-23T22:22:46.496Z,11.20
2023-03-23T22:25:15.307Z,11.22
2023-03-23T22:27:44.864Z,11.23
2023-03-23T22:30:13.603Z,11.24
2023-03-23T22:32:42.304Z,11.26
2023-03-23T22:35:12.806Z,11.25
2023-03-23T22:37:41.923Z,11.24
2023-03-23T22:40:11.707Z,11.24
2023-03-23T22:42:40.828Z,11.23
2023-03-23T22:45:09.789Z,11.23
2023-03-23T22:47:38.902Z,11.23
2023-03-23T22:50:08.471Z,11.24
2023-03-23T22:52:37.513Z,11.25
2023-03-23T22:55:08.478Z,11.24
2023-03-23T22:57:37.864Z,11.23
2023-03-23T23:00:09.011Z,11.22
2023-03-23T23:02:37.723Z,11.22
2023-03-23T23:05:06.161Z,11.21
2023-03-23T23:07:36.408Z,11.21
2023-03-23T23:10:05.483Z,11.22
2023-03-23T23:12:35.494Z,11.22
2023-03-23T23:15:06.026Z,11.22
2023-03-23T23:17:35.031Z,11.22
2023-03-23T23:20:05.710Z,11.21
2023-03-23T23:22:36.712Z,11.19
2023-03-23T23:25:06.622Z,11.17
2023-03-23T23:27:35.674Z,11.16
2023-03-23T23:30:06.996Z,11.15
2023-03-23T23:32:57.638Z,11.14
2023-03-23T23:35:26.271Z,11.13
2023-03-23T23:37:55.802Z,11.13
2023-03-23T23:40:24.014Z,11.13
2023-03-23T23:42:53.851Z,11.14
2023-03-23T23:45:22.601Z,11.14
2023-03-23T23:47:59.500Z,11.14
2023-03-23T23:50:28.095Z,11.15
2023-03-23T23:52:58.703Z,11.15
2023-03-23T23:55:27.202Z,11.14
2023-03-23T23:57:56.189Z,11.14
